Time;durP1;ratioP1;P1;durP2;ratioP2;P2;SDS_P1;SDS_P2;PMS_P1;PMS_P2;Temp;Humidity;BMP_temperature;BMP_pressure;BME280_temperature;BME280_humidity;BME280_pressure;Samples;Min_cycle;Max_cycle;Signal;HPM_P1;HPM_P2
2022/05/24 00:01:28;;;;;;;16.80;9.33;;;10.90;99.90;;;;;;5071597;28;20204;-57
2022/05/24 00:03:56;;;;;;;18.37;8.70;;;10.90;99.90;;;;;;5071230;28;20200;-58
2022/05/24 00:06:25;;;;;;;18.53;9.73;;;10.80;99.90;;;;;;5071356;28;20253;-57
2022/05/24 00:08:53;;;;;;;19.80;8.73;;;10.80;99.90;;;;;;5070947;28;20232;-58
2022/05/24 00:11:20;;;;;;;16.23;9.50;;;10.70;99.90;;;;;;5071533;28;20570;-55
2022/05/24 00:13:47;;;;;;;18.70;9.60;;;10.60;99.90;;;;;;5071335;28;20236;-56
2022/05/24 00:16:14;;;;;;;20.73;10.97;;;10.60;99.90;;;;;;5071515;28;20201;-55
2022/05/24 00:18:41;;;;;;;21.73;10.90;;;10.60;99.90;;;;;;5071018;28;20216;-57
2022/05/24 00:21:08;;;;;;;21.63;10.73;;;10.60;99.90;;;;;;5071177;28;20206;-57
2022/05/24 00:23:35;;;;;;;23.20;11.30;;;10.60;99.90;;;;;;5070997;28;20543;-57
2022/05/24 00:26:06;;;;;;;24.83;11.77;;;10.50;99.90;;;;;;5070830;28;20217;-57
2022/05/24 00:28:34;;;;;;;27.67;13.10;;;10.50;99.90;;;;;;5070939;28;20430;-55
2022/05/24 00:31:01;;;;;;;23.17;12.50;;;10.50;99.90;;;;;;5071168;28;20215;-58
2022/05/24 00:33:28;;;;;;;29.37;12.47;;;10.40;99.90;;;;;;5071118;28;20205;-58
2022/05/24 00:35:56;;;;;;;26.43;12.93;;;10.40;99.90;;;;;;5071008;28;20198;-58
2022/05/24 00:38:27;;;;;;;33.30;16.57;;;10.40;99.90;;;;;;5071051;28;20214;-58
2022/05/24 00:41:05;;;;;;;29.57;15.27;;;10.40;99.90;;;;;;5070817;28;20193;-57
2022/05/24 00:43:38;;;;;;;30.00;14.40;;;10.30;99.90;;;;;;5070937;28;20192;-59
2022/05/24 00:46:09;;;;;;;27.20;13.80;;;10.30;99.90;;;;;;5071131;28;20497;-59
2022/05/24 00:48:40;;;;;;;37.00;18.33;;;10.30;99.90;;;;;;5072011;28;20210;-59
2022/05/24 00:51:09;;;;;;;39.63;16.97;;;10.30;99.90;;;;;;5074324;28;20197;-57
2022/05/24 00:53:40;;;;;;;39.30;18.40;;;10.30;99.90;;;;;;5074451;28;20205;-57
2022/05/24 00:56:12;;;;;;;40.57;19.87;;;10.20;99.90;;;;;;5074350;28;20192;-59
2022/05/24 00:58:45;;;;;;;39.10;19.57;;;10.10;99.90;;;;;;5074094;28;20237;-57
2022/05/24 01:01:24;;;;;;;39.80;18.80;;;10.10;99.90;;;;;;5074512;28;20189;-57
2022/05/24 01:03:50;;;;;;;30.97;18.27;;;10.10;99.90;;;;;;5074508;28;20208;-57
2022/05/24 01:06:17;;;;;;;38.53;19.17;;;10.00;99.90;;;;;;5074344;28;20224;-56
2022/05/24 01:08:44;;;;;;;46.43;19.67;;;10.00;99.90;;;;;;5073975;28;20243;-59
2022/05/24 01:11:13;;;;;;;37.33;18.67;;;10.00;99.90;;;;;;5074172;28;20200;-57
2022/05/24 01:13:42;;;;;;;38.47;19.53;;;10.00;99.90;;;;;;5074129;28;20208;-58
2022/05/24 01:16:10;;;;;;;34.23;16.90;;;10.00;99.90;;;;;;5073771;28;20208;-58
2022/05/24 01:18:36;;;;;;;32.47;15.23;;;10.00;99.90;;;;;;5073863;28;20666;-59
2022/05/24 01:21:06;;;;;;;32.83;16.07;;;9.90;99.90;;;;;;5074026;28;20205;-57
2022/05/24 01:23:48;;;;;;;30.93;14.53;;;10.00;99.90;;;;;;5074251;28;20662;-58
2022/05/24 01:26:19;;;;;;;24.30;14.03;;;10.00;99.90;;;;;;5073906;28;20216;-55
2022/05/24 01:28:53;;;;;;;25.20;13.60;;;10.00;99.90;;;;;;5073736;28;20189;-57
2022/05/24 01:31:21;;;;;;;26.50;13.60;;;10.00;99.90;;;;;;5073766;28;20626;-57
2022/05/24 01:36:37;;;;;;;24.57;12.83;;;9.90;99.90;;;;;;5073445;28;20291;-57
2022/05/24 01:39:07;;;;;;;27.33;13.03;;;9.90;99.90;;;;;;5074048;28;20189;-58
2022/05/24 01:41:38;;;;;;;21.67;12.53;;;9.80;99.90;;;;;;5073868;28;20223;-57
2022/05/24 01:44:07;;;;;;;25.13;12.77;;;9.80;99.90;;;;;;5073293;28;20185;-58
2022/05/24 01:46:37;;;;;;;25.73;14.43;;;9.90;99.90;;;;;;5073416;28;20228;-57
2022/05/24 01:49:08;;;;;;;30.60;15.33;;;9.90;99.90;;;;;;5073549;28;20562;-57
2022/05/24 01:51:41;;;;;;;26.00;13.80;;;9.80;99.90;;;;;;5073194;28;20193;-57
2022/05/24 01:54:09;;;;;;;26.30;13.80;;;9.70;99.90;;;;;;5073432;28;20193;-58
2022/05/24 01:56:45;;;;;;;31.23;15.20;;;9.70;99.90;;;;;;5073064;28;20330;-56
2022/05/24 01:59:14;;;;;;;26.13;14.17;;;9.60;99.90;;;;;;5072968;28;20188;-57
2022/05/24 02:01:47;;;;;;;26.67;13.83;;;9.60;99.90;;;;;;5072517;28;20201;-56
2022/05/24 02:04:15;;;;;;;27.40;14.00;;;9.60;99.90;;;;;;5072838;28;20192;-57
2022/05/24 02:06:42;;;;;;;22.90;12.90;;;9.60;99.90;;;;;;5073122;28;20228;-58
2022/05/24 02:09:10;;;;;;;26.63;14.00;;;9.60;99.90;;;;;;5072704;28;20224;-58
2022/05/24 02:11:37;;;;;;;21.67;12.43;;;9.50;99.90;;;;;;5073015;28;20232;-57
2022/05/24 02:14:11;;;;;;;22.83;12.20;;;9.60;99.90;;;;;;5072832;28;20697;-57
2022/05/24 02:16:44;;;;;;;28.97;13.20;;;9.50;99.90;;;;;;5072720;28;20185;-59
2022/05/24 02:19:12;;;;;;;23.00;12.03;;;9.50;99.90;;;;;;5072992;28;20264;-56
2022/05/24 02:21:41;;;;;;;19.30;12.27;;;9.50;99.90;;;;;;5072944;28;20352;-58
2022/05/24 02:24:16;;;;;;;25.20;12.43;;;9.50;99.90;;;;;;5073002;28;20205;-56
2022/05/24 02:26:44;;;;;;;20.80;12.17;;;9.50;99.90;;;;;;5072731;28;20212;-57
2022/05/24 02:29:10;;;;;;;26.13;13.93;;;9.50;99.90;;;;;;5072553;28;20212;-59
2022/05/24 02:31:39;;;;;;;22.00;12.17;;;9.40;99.90;;;;;;5072418;28;20224;-58
2022/05/24 02:34:06;;;;;;;19.00;11.10;;;9.50;99.90;;;;;;5072359;28;20204;-58
2022/05/24 02:36:32;;;;;;;20.40;11.90;;;9.60;99.90;;;;;;5072487;28;20208;-58
2022/05/24 02:38:59;;;;;;;22.63;12.23;;;9.60;99.90;;;;;;5072552;28;20204;-57
2022/05/24 02:41:31;;;;;;;20.90;10.57;;;9.70;99.90;;;;;;5072347;28;20535;-57
2022/05/24 02:44:00;;;;;;;21.17;10.97;;;9.70;99.90;;;;;;5072541;28;20189;-58
2022/05/24 02:46:27;;;;;;;23.27;11.77;;;9.80;99.90;;;;;;5071941;28;20220;-57
2022/05/24 02:48:56;;;;;;;20.93;10.73;;;9.80;99.90;;;;;;5072454;28;20228;-57
2022/05/24 02:51:23;;;;;;;23.27;11.20;;;9.90;99.90;;;;;;5071952;28;20205;-57
2022/05/24 02:53:50;;;;;;;19.63;11.43;;;9.90;99.90;;;;;;5072274;28;20585;-57
2022/05/24 02:56:16;;;;;;;29.60;11.80;;;9.90;99.90;;;;;;5072048;28;20203;-61
2022/05/24 02:58:43;;;;;;;27.47;12.70;;;9.90;99.90;;;;;;5071893;28;20247;-58
2022/05/24 03:01:18;;;;;;;22.47;12.10;;;9.80;99.90;;;;;;5072144;28;20216;-59
2022/05/24 03:03:45;;;;;;;24.80;12.20;;;9.70;99.90;;;;;;5072264;28;20195;-57
2022/05/24 03:06:13;;;;;;;26.70;12.40;;;9.60;99.90;;;;;;5071866;28;20319;-59
2022/05/24 03:11:24;;;;;;;22.53;11.43;;;9.40;99.90;;;;;;5071503;28;20242;-57
2022/05/24 03:16:35;;;;;;;25.43;13.37;;;9.10;99.90;;;;;;5071891;28;20550;-56
2022/05/24 03:19:01;;;;;;;28.07;12.47;;;9.10;99.90;;;;;;5071981;28;20201;-58
2022/05/24 03:21:30;;;;;;;23.50;12.10;;;8.90;99.90;;;;;;5071887;28;20204;-56
2022/05/24 03:23:56;;;;;;;27.60;13.87;;;8.90;99.90;;;;;;5071590;28;20215;-57
2022/05/24 03:26:23;;;;;;;25.93;13.90;;;8.90;99.90;;;;;;5071380;28;20221;-59
2022/05/24 03:28:50;;;;;;;30.00;15.37;;;8.90;99.90;;;;;;5071465;28;20212;-57
2022/05/24 03:31:17;;;;;;;30.03;15.27;;;8.90;99.90;;;;;;5071580;28;20564;-59
2022/05/24 03:33:43;;;;;;;33.07;15.20;;;8.90;99.90;;;;;;5071941;28;20250;-58
2022/05/24 03:36:11;;;;;;;33.23;16.83;;;9.00;99.90;;;;;;5071670;28;20567;-56
2022/05/24 03:38:39;;;;;;;33.53;16.77;;;9.00;99.90;;;;;;5071801;28;20613;-57
2022/05/24 03:41:06;;;;;;;37.53;17.90;;;9.10;99.90;;;;;;5071374;28;20201;-58
2022/05/24 03:43:33;;;;;;;33.47;17.40;;;9.10;99.90;;;;;;5071429;28;20211;-58
2022/05/24 03:46:01;;;;;;;33.60;17.40;;;9.20;99.90;;;;;;5071124;28;20223;-57
2022/05/24 03:48:28;;;;;;;35.93;17.10;;;9.30;99.90;;;;;;5071651;28;20659;-59
2022/05/24 03:50:56;;;;;;;38.90;17.57;;;9.20;99.90;;;;;;5071330;28;20219;-58
2022/05/24 03:53:23;;;;;;;31.67;16.53;;;9.30;99.90;;;;;;5071378;28;20208;-57
2022/05/24 03:55:51;;;;;;;33.83;16.47;;;9.30;99.90;;;;;;5071130;28;20227;-57
2022/05/24 03:58:18;;;;;;;33.17;16.50;;;9.40;99.90;;;;;;5071012;28;20589;-59
2022/05/24 04:00:45;;;;;;;32.77;17.37;;;9.40;99.90;;;;;;5071043;28;20208;-59
2022/05/24 04:03:14;;;;;;;29.50;16.50;;;9.40;99.90;;;;;;5071173;28;20236;-58
2022/05/24 04:05:42;;;;;;;33.77;17.73;;;9.50;99.90;;;;;;5071219;28;20209;-58
2022/05/24 04:08:10;;;;;;;32.90;16.93;;;9.50;99.90;;;;;;5070861;28;20308;-57
2022/05/24 04:10:37;;;;;;;32.87;16.50;;;9.60;99.90;;;;;;5071214;28;20204;-57
2022/05/24 04:13:06;;;;;;;31.10;15.50;;;9.70;99.90;;;;;;5070960;28;20627;-56
2022/05/24 04:15:33;;;;;;;31.70;16.20;;;9.80;99.90;;;;;;5071080;28;20205;-58
2022/05/24 04:18:00;;;;;;;34.70;17.10;;;9.80;99.90;;;;;;5070531;28;20209;-58
2022/05/24 04:20:28;;;;;;;31.67;16.90;;;9.80;99.90;;;;;;5071102;28;20567;-58
2022/05/24 04:22:56;;;;;;;31.87;16.27;;;9.90;99.90;;;;;;5070650;28;20214;-56
2022/05/24 04:25:25;;;;;;;33.23;17.00;;;10.00;99.90;;;;;;5074698;28;20215;-56
2022/05/24 04:27:51;;;;;;;33.00;16.20;;;10.10;99.90;;;;;;5074875;28;20311;-60
2022/05/24 04:30:20;;;;;;;33.40;17.10;;;10.20;99.90;;;;;;5074900;28;20201;-59
2022/05/24 04:32:47;;;;;;;29.97;16.83;;;10.30;99.90;;;;;;5075006;28;20208;-58
2022/05/24 04:35:14;;;;;;;31.77;16.70;;;10.40;99.90;;;;;;5074690;28;20208;-58
2022/05/24 04:37:40;;;;;;;32.60;16.47;;;10.50;99.90;;;;;;5074615;28;20211;-56
2022/05/24 04:40:09;;;;;;;35.50;17.53;;;10.60;99.90;;;;;;5074721;28;20201;-57
2022/05/24 04:42:35;;;;;;;35.10;16.17;;;10.70;99.90;;;;;;5074451;28;20613;-58
2022/05/24 04:45:06;;;;;;;29.53;16.07;;;10.90;99.90;;;;;;5074275;28;20566;-56
2022/05/24 04:47:35;;;;;;;32.70;15.97;;;11.00;99.90;;;;;;5074279;28;20215;-56
2022/05/24 04:50:05;;;;;;;33.83;15.50;;;11.10;99.90;;;;;;5073849;28;20205;-60
2022/05/24 04:52:35;;;;;;;31.03;14.77;;;11.30;99.90;;;;;;5074161;28;20197;-56
2022/05/24 04:55:03;;;;;;;30.60;14.67;;;11.50;99.90;;;;;;5074056;28;20228;-61
2022/05/24 04:57:30;;;;;;;25.43;13.73;;;11.60;99.90;;;;;;5074062;28;20233;-62
2022/05/24 04:59:57;;;;;;;26.60;14.07;;;11.80;99.90;;;;;;5074231;28;20204;-57
2022/05/24 05:02:24;;;;;;;26.50;13.50;;;11.90;99.90;;;;;;5073781;28;20201;-58
2022/05/24 05:04:53;;;;;;;24.43;13.33;;;12.10;99.90;;;;;;5074226;28;20208;-58
2022/05/24 05:07:20;;;;;;;27.97;12.83;;;12.20;99.90;;;;;;5074221;28;20225;-59
2022/05/24 05:09:50;;;;;;;22.30;12.30;;;12.40;99.90;;;;;;5074219;28;20204;-58
2022/05/24 05:12:18;;;;;;;26.87;12.83;;;12.50;99.90;;;;;;5074027;28;20240;-57
2022/05/24 05:14:44;;;;;;;22.93;12.20;;;12.60;99.90;;;;;;5074171;28;20205;-58
2022/05/24 05:17:12;;;;;;;23.47;11.53;;;12.80;99.90;;;;;;5073829;28;20197;-55
2022/05/24 05:19:39;;;;;;;22.17;11.80;;;12.90;99.90;;;;;;5074166;28;20205;-60
2022/05/24 05:22:08;;;;;;;22.17;10.30;;;13.00;99.90;;;;;;5074017;28;20565;-58
2022/05/24 05:24:35;;;;;;;19.67;10.60;;;13.10;99.90;;;;;;5074011;28;20207;-58
2022/05/24 05:27:02;;;;;;;19.00;10.67;;;13.30;99.90;;;;;;5073404;28;20224;-57
2022/05/24 05:32:19;;;;;;;23.47;11.47;;;13.50;99.90;;;;;;5073580;28;20458;-57
2022/05/24 05:34:47;;;;;;;23.40;10.53;;;13.70;99.90;;;;;;5073498;28;20635;-58
2022/05/24 05:37:16;;;;;;;18.20;9.80;;;13.80;99.90;;;;;;5073593;28;20277;-57
2022/05/24 05:39:42;;;;;;;17.37;9.10;;;13.80;99.90;;;;;;5073631;28;20205;-58
2022/05/24 05:42:09;;;;;;;17.23;9.43;;;14.00;99.90;;;;;;5073706;28;20566;-58
2022/05/24 05:44:36;;;;;;;19.63;9.77;;;14.10;99.90;;;;;;5073633;28;20569;-58
2022/05/24 05:47:03;;;;;;;17.10;7.93;;;14.20;99.90;;;;;;5073286;28;20232;-58
2022/05/24 05:49:30;;;;;;;14.03;6.90;;;14.30;99.60;;;;;;5073202;28;20219;-58
2022/05/24 05:51:57;;;;;;;13.77;6.53;;;14.40;97.80;;;;;;5073409;28;20207;-58
2022/05/24 05:54:25;;;;;;;13.10;6.47;;;14.50;97.70;;;;;;5073486;28;20200;-58
2022/05/24 05:56:52;;;;;;;15.70;7.23;;;14.60;97.80;;;;;;5073039;28;20212;-57
2022/05/24 05:59:19;;;;;;;12.00;6.17;;;14.70;97.10;;;;;;5073544;28;20193;-56
2022/05/24 06:01:46;;;;;;;12.57;6.53;;;14.80;95.60;;;;;;5073072;28;20575;-58
2022/05/24 06:04:13;;;;;;;14.10;6.60;;;14.90;96.20;;;;;;5073272;28;20651;-57
2022/05/24 06:06:44;;;;;;;12.07;6.03;;;15.00;94.30;;;;;;5072977;28;20211;-58
2022/05/24 06:09:11;;;;;;;11.93;6.57;;;15.10;94.10;;;;;;5073056;28;20224;-58
2022/05/24 06:11:39;;;;;;;13.23;6.13;;;15.20;93.80;;;;;;5073079;28;20201;-60
2022/05/24 06:14:06;;;;;;;9.83;4.80;;;15.20;93.30;;;;;;5073038;28;20204;-58
2022/05/24 06:16:32;;;;;;;13.67;4.70;;;15.30;91.40;;;;;;5072619;28;20212;-57
2022/05/24 06:18:59;;;;;;;23.20;13.90;;;15.30;90.90;;;;;;5072565;28;20244;-58
2022/05/24 06:21:26;;;;;;;25.67;6.47;;;15.40;91.40;;;;;;5072843;28;20227;-57
2022/05/24 06:23:53;;;;;;;21.03;5.60;;;15.50;92.10;;;;;;5072390;28;20205;-57
2022/05/24 06:26:21;;;;;;;11.73;4.43;;;15.50;92.60;;;;;;5072854;28;20551;-58
2022/05/24 06:28:49;;;;;;;9.27;3.70;;;15.70;91.30;;;;;;5072603;28;20220;-61
2022/05/24 06:31:16;;;;;;;5.57;2.70;;;15.70;89.90;;;;;;5072692;28;20560;-58
2022/05/24 06:33:43;;;;;;;4.47;2.70;;;15.80;85.40;;;;;;5072160;28;20200;-56
2022/05/24 06:36:10;;;;;;;8.43;3.00;;;15.80;86.10;;;;;;5072580;28;20639;-58
2022/05/24 06:38:38;;;;;;;13.33;3.10;;;15.80;85.70;;;;;;5072271;28;20201;-58
2022/05/24 06:41:05;;;;;;;4.10;2.47;;;15.90;85.50;;;;;;5072193;28;20239;-57
2022/05/24 06:43:32;;;;;;;4.00;2.57;;;15.90;81.50;;;;;;5072229;28;20213;-58
2022/05/24 06:46:00;;;;;;;4.63;2.20;;;16.00;80.10;;;;;;5071601;28;20505;-57
2022/05/24 06:48:28;;;;;;;3.47;2.10;;;16.00;80.40;;;;;;5072126;28;20227;-57
2022/05/24 06:50:55;;;;;;;3.07;2.27;;;16.10;81.20;;;;;;5071752;28;20300;-57
2022/05/24 06:53:22;;;;;;;7.93;2.20;;;16.10;78.20;;;;;;5071674;28;20219;-57
2022/05/24 06:55:49;;;;;;;3.03;2.00;;;16.20;78.50;;;;;;5071890;28;20688;-58
2022/05/24 06:58:15;;;;;;;2.83;1.90;;;16.20;78.00;;;;;;5071792;28;20604;-58
2022/05/24 07:03:28;;;;;;;5.97;1.97;;;16.30;76.60;;;;;;5071911;28;20237;-56
2022/05/24 07:05:55;;;;;;;4.73;2.10;;;16.30;76.60;;;;;;5071645;28;20262;-60
2022/05/24 07:08:22;;;;;;;4.37;2.23;;;16.30;74.80;;;;;;5071954;28;20236;-59
2022/05/24 07:10:48;;;;;;;5.27;2.17;;;16.40;74.90;;;;;;5071837;28;20569;-60
2022/05/24 07:13:19;;;;;;;3.17;2.00;;;16.40;74.40;;;;;;5071598;28;20229;-60
2022/05/24 07:15:45;;;;;;;3.90;2.33;;;16.40;72.90;;;;;;5071467;28;20186;-58
2022/05/24 07:18:12;;;;;;;2.97;2.03;;;16.50;72.70;;;;;;5071814;28;20200;-58
2022/05/24 07:20:41;;;;;;;3.27;2.00;;;16.50;70.50;;;;;;5071282;28;20201;-59
2022/05/24 07:23:15;;;;;;;3.20;2.00;;;16.40;68.00;;;;;;5071863;28;20205;-60
2022/05/24 07:25:42;;;;;;;4.10;1.87;;;16.40;70.10;;;;;;5071351;28;20193;-59
2022/05/24 07:28:10;;;;;;;4.70;2.20;;;16.40;70.90;;;;;;5071588;28;20236;-60
2022/05/24 07:30:37;;;;;;;3.23;2.10;;;16.50;70.50;;;;;;5071480;28;20217;-60
2022/05/24 07:33:05;;;;;;;6.13;2.13;;;16.60;69.50;;;;;;5071481;28;20209;-60
2022/05/24 07:35:32;;;;;;;4.63;2.00;;;16.60;68.90;;;;;;5071349;28;20231;-60
2022/05/24 07:38:01;;;;;;;3.07;1.97;;;16.60;68.20;;;;;;5071375;28;20556;-59
2022/05/24 07:46:06;;;;;;;2.73;2.03;;;16.60;69.30;;;;;;5071302;28;20653;-59
2022/05/24 07:48:34;;;;;;;4.30;2.03;;;16.70;70.30;;;;;;5071255;28;20222;-59
2022/05/24 07:51:01;;;;;;;3.17;2.00;;;16.70;69.60;;;;;;5071100;28;20371;-58
2022/05/24 07:53:29;;;;;;;3.60;2.23;;;16.70;70.30;;;;;;5071397;28;20205;-57
2022/05/24 07:55:56;;;;;;;3.73;2.17;;;16.70;70.00;;;;;;5071486;28;20206;-58
2022/05/24 07:58:23;;;;;;;3.53;2.00;;;16.70;70.40;;;;;;5071635;28;20252;-61
2022/05/24 08:00:50;;;;;;;3.43;2.10;;;16.70;71.80;;;;;;5075526;28;20197;-59
2022/05/24 08:03:17;;;;;;;2.87;1.90;;;16.70;69.80;;;;;;5075279;28;20206;-59
2022/05/24 08:05:44;;;;;;;4.50;2.23;;;16.70;68.60;;;;;;5075222;28;20204;-59
2022/05/24 08:08:11;;;;;;;3.53;1.87;;;16.70;69.40;;;;;;5074910;28;20222;-58
2022/05/24 08:10:40;;;;;;;3.23;1.97;;;16.70;69.70;;;;;;5075164;28;20201;-59
2022/05/24 08:13:09;;;;;;;3.70;2.43;;;16.80;68.30;;;;;;5075138;28;20660;-60
2022/05/24 08:15:37;;;;;;;3.50;2.00;;;16.80;69.20;;;;;;5074996;28;20200;-57
2022/05/24 08:18:05;;;;;;;2.90;1.83;;;16.80;69.10;;;;;;5074912;28;20197;-59
2022/05/24 08:20:33;;;;;;;4.93;2.33;;;16.90;68.90;;;;;;5074792;28;20204;-58
2022/05/24 08:23:00;;;;;;;6.07;2.43;;;16.90;70.10;;;;;;5074958;28;20208;-59
2022/05/24 08:25:30;;;;;;;5.23;2.23;;;17.00;70.40;;;;;;5074662;28;20224;-59
2022/05/24 08:28:02;;;;;;;4.63;2.10;;;17.00;68.70;;;;;;5074691;28;20584;-58
2022/05/24 08:30:30;;;;;;;4.30;2.37;;;17.00;69.20;;;;;;5074615;28;20537;-57
2022/05/24 08:32:57;;;;;;;4.93;2.00;;;17.00;68.60;;;;;;5074792;28;20201;-59
2022/05/24 08:35:25;;;;;;;3.97;1.83;;;17.00;69.60;;;;;;5074884;28;20209;-58
2022/05/24 08:37:52;;;;;;;2.43;1.97;;;17.10;69.40;;;;;;5074756;28;20202;-57
2022/05/24 08:40:22;;;;;;;2.97;2.27;;;17.00;69.00;;;;;;5074619;28;20205;-59
2022/05/24 08:43:12;;;;;;;4.00;2.20;;;17.10;69.90;;;;;;5074287;28;20214;-59
2022/05/24 08:48:37;;;;;;;2.40;1.93;;;17.10;70.90;;;;;;5074111;28;20316;-60
2022/05/24 08:51:08;;;;;;;3.23;1.70;;;17.20;69.60;;;;;;5074380;28;20197;-59
2022/05/24 08:53:39;;;;;;;3.57;1.97;;;17.20;70.30;;;;;;5074297;28;20189;-58
2022/05/24 08:56:08;;;;;;;7.50;2.50;;;17.30;68.70;;;;;;5074546;28;20276;-58
2022/05/24 08:58:39;;;;;;;4.63;2.10;;;17.20;68.90;;;;;;5073815;28;20232;-60
2022/05/24 09:01:13;;;;;;;3.80;2.13;;;17.20;69.20;;;;;;5073978;28;20193;-59
2022/05/24 09:03:40;;;;;;;3.87;1.93;;;17.30;70.00;;;;;;5073770;28;20267;-59
2022/05/24 09:06:14;;;;;;;2.67;2.00;;;17.30;68.60;;;;;;5074042;28;20216;-57
2022/05/24 09:09:01;;;;;;;2.00;1.60;;;17.30;68.50;;;;;;5073530;28;20229;-57
2022/05/24 09:11:42;;;;;;;6.23;2.33;;;17.20;68.50;;;;;;5073985;28;20193;-60
2022/05/24 09:14:18;;;;;;;3.00;2.07;;;17.30;70.70;;;;;;5073977;28;20552;-58
2022/05/24 09:16:54;;;;;;;5.20;2.20;;;17.40;69.70;;;;;;5074001;28;20188;-58
2022/05/24 09:19:24;;;;;;;2.30;1.90;;;17.40;69.50;;;;;;5073798;28;20225;-60
2022/05/24 09:21:53;;;;;;;3.23;1.90;;;17.40;68.20;;;;;;5073853;28;20197;-59
2022/05/24 09:24:29;;;;;;;4.63;2.20;;;17.50;69.40;;;;;;5073754;28;20210;-59
2022/05/24 09:27:08;;;;;;;11.63;4.90;;;17.50;69.00;;;;;;5073515;28;20191;-58
2022/05/24 09:29:51;;;;;;;3.83;2.00;;;17.60;69.60;;;;;;5073670;28;20373;-59
2022/05/24 09:32:20;;;;;;;2.37;1.93;;;17.60;68.20;;;;;;5073822;28;20194;-57
2022/05/24 09:34:47;;;;;;;4.27;1.90;;;17.70;69.20;;;;;;5073307;28;20209;-59
2022/05/24 09:37:26;;;;;;;7.43;2.53;;;17.70;68.80;;;;;;5073606;28;20255;-59
2022/05/24 09:39:58;;;;;;;4.47;1.90;;;17.70;69.90;;;;;;5073601;28;20187;-56
2022/05/24 09:42:28;;;;;;;2.40;1.73;;;17.80;67.40;;;;;;5073243;28;20190;-60
2022/05/24 09:45:01;;;;;;;4.17;2.03;;;17.80;68.00;;;;;;5073291;28;20203;-59
2022/05/24 09:47:32;;;;;;;9.13;2.03;;;17.80;68.40;;;;;;5073730;28;20243;-57
2022/05/24 09:50:29;;;;;;;2.30;1.90;;;17.80;67.90;;;;;;5073227;28;20254;-59
2022/05/24 09:53:14;;;;;;;4.20;2.17;;;17.80;67.80;;;;;;5073202;28;20213;-58
2022/05/24 09:55:46;;;;;;;6.50;2.00;;;17.90;68.40;;;;;;5073105;28;20199;-59
2022/05/24 09:58:22;;;;;;;1.97;1.80;;;17.90;69.00;;;;;;5072762;28;20233;-58
2022/05/24 10:00:52;;;;;;;2.90;2.03;;;18.00;69.00;;;;;;5073166;28;20189;-59
2022/05/24 10:03:23;;;;;;;2.70;2.00;;;18.10;69.10;;;;;;5073049;28;20523;-62
2022/05/24 10:06:07;;;;;;;5.30;2.00;;;18.10;69.00;;;;;;5072803;28;20190;-58
2022/05/24 10:08:37;;;;;;;4.57;2.13;;;18.10;67.70;;;;;;5073032;28;20232;-57
2022/05/24 10:11:06;;;;;;;2.50;1.90;;;18.10;66.90;;;;;;5073099;28;20208;-57
2022/05/24 10:13:40;;;;;;;2.60;2.17;;;18.20;67.60;;;;;;5072692;28;20204;-59
2022/05/24 10:16:16;;;;;;;19.30;2.97;;;18.10;67.80;;;;;;5072456;28;20202;-58
2022/05/24 10:19:14;;;;;;;3.17;1.60;;;18.20;69.10;;;;;;5072868;28;20189;-58
2022/05/24 10:21:46;;;;;;;2.93;1.90;;;18.20;68.00;;;;;;5071722;28;20215;-58
2022/05/24 10:24:33;;;;;;;4.90;2.00;;;18.20;70.00;;;;;;5072866;28;20550;-59
2022/05/24 10:27:05;;;;;;;3.37;2.23;;;18.30;68.20;;;;;;5072895;28;20196;-62
2022/05/24 10:29:56;;;;;;;2.20;1.60;;;18.40;68.40;;;;;;5072667;28;20220;-59
2022/05/24 10:38:30;;;;;;;3.07;1.93;;;18.40;67.40;;;;;;5072282;28;20177;-58
2022/05/24 10:41:06;;;;;;;5.53;2.27;;;18.50;67.70;;;;;;5072614;28;20202;-58
2022/05/24 10:43:49;;;;;;;8.47;1.90;;;18.60;66.60;;;;;;5072549;28;20530;-58
2022/05/24 10:46:20;;;;;;;3.03;1.90;;;18.60;66.80;;;;;;5072035;28;20200;-59
2022/05/24 10:48:59;;;;;;;5.10;2.27;;;18.60;68.30;;;;;;5072448;28;20264;-61
2022/05/24 10:51:30;;;;;;;4.27;1.90;;;18.70;67.40;;;;;;5072123;28;20202;-59
2022/05/24 10:54:01;;;;;;;2.97;1.80;;;18.70;68.20;;;;;;5072319;28;20214;-59
2022/05/24 10:56:40;;;;;;;5.03;1.90;;;18.80;68.50;;;;;;5072343;28;20199;-59
2022/05/24 10:59:16;;;;;;;1.90;1.50;;;18.90;68.80;;;;;;5071853;28;20191;-58
2022/05/24 11:01:50;;;;;;;4.87;1.90;;;18.90;66.80;;;;;;5072226;28;20203;-58
2022/05/24 11:04:24;;;;;;;4.23;1.80;;;18.90;66.50;;;;;;5071944;28;20383;-58
2022/05/24 11:06:59;;;;;;;3.97;1.83;;;18.90;67.30;;;;;;5071891;28;20229;-57
2022/05/24 11:09:28;;;;;;;5.00;1.97;;;18.90;67.00;;;;;;5071864;28;20212;-59
2022/05/24 11:12:01;;;;;;;3.33;1.80;;;19.00;67.40;;;;;;5071797;28;20239;-59
2022/05/24 11:14:36;;;;;;;2.47;1.73;;;19.10;67.60;;;;;;5071892;28;20191;-58
2022/05/24 11:17:03;;;;;;;2.93;1.80;;;19.20;66.40;;;;;;5071935;28;20240;-58
2022/05/24 11:19:36;;;;;;;3.23;2.00;;;19.20;67.00;;;;;;5071817;28;20234;-60
2022/05/24 11:22:09;;;;;;;2.33;1.90;;;19.30;67.40;;;;;;5071503;28;20197;-60
2022/05/24 11:24:43;;;;;;;2.87;1.77;;;19.40;65.80;;;;;;5071919;28;20200;-59
2022/05/24 11:27:14;;;;;;;4.97;1.77;;;19.30;66.20;;;;;;5071706;28;20254;-60
2022/05/24 11:29:47;;;;;;;2.90;1.90;;;19.40;66.10;;;;;;5071904;28;20221;-59
2022/05/24 11:32:29;;;;;;;2.73;1.90;;;19.40;65.80;;;;;;5071247;28;20199;-58
2022/05/24 11:35:03;;;;;;;3.13;2.00;;;19.40;66.90;;;;;;5071314;28;20192;-59
2022/05/24 11:37:33;;;;;;;3.07;1.80;;;19.40;65.80;;;;;;5071748;28;20192;-60
2022/05/24 11:40:34;;;;;;;2.40;1.60;;;19.40;65.10;;;;;;5071558;28;20185;-58
2022/05/24 11:43:03;;;;;;;2.70;1.97;;;19.40;65.60;;;;;;5071303;28;20193;-58
2022/05/24 11:46:02;;;;;;;2.77;1.90;;;19.50;67.10;;;;;;5071728;28;20659;-58
2022/05/24 11:48:44;;;;;;;2.37;1.90;;;19.60;66.20;;;;;;5071553;28;20285;-59
2022/05/24 11:51:36;;;;;;;3.93;2.10;;;19.70;65.50;;;;;;5071235;28;20219;-58
2022/05/24 11:54:04;;;;;;;7.03;2.23;;;19.80;65.70;;;;;;5071459;28;20192;-59
2022/05/24 11:56:31;;;;;;;10.80;2.20;;;19.80;66.60;;;;;;5071450;28;20556;-61
2022/05/24 11:59:01;;;;;;;3.13;2.03;;;19.80;65.40;;;;;;5070853;28;20236;-58
2022/05/24 12:01:49;;;;;;;3.90;2.43;;;19.80;65.40;;;;;;5071439;28;20203;-58
2022/05/24 12:10:43;;;;;;;3.03;2.10;;;19.90;65.50;;;;;;5071007;28;20232;-57
2022/05/24 12:13:35;;;;;;;3.10;2.00;;;19.90;63.60;;;;;;5071140;28;20193;-61
2022/05/24 12:16:04;;;;;;;4.37;2.17;;;19.90;65.10;;;;;;5071122;28;20195;-58
2022/05/24 12:18:45;;;;;;;4.13;2.37;;;20.00;65.20;;;;;;5071289;28;20227;-59
2022/05/24 12:21:43;;;;;;;3.70;2.30;;;20.00;64.30;;;;;;5071163;28;20189;-58
2022/05/24 12:24:43;;;;;;;3.33;2.10;;;20.20;66.70;;;;;;5070950;28;20193;-59
2022/05/24 12:27:42;;;;;;;2.83;1.73;;;20.30;66.30;;;;;;5071142;28;20194;-58
2022/05/24 12:30:39;;;;;;;3.33;2.10;;;20.30;64.20;;;;;;5055533;28;20230;-58
2022/05/24 12:33:35;;;;;;;3.80;1.97;;;20.30;63.50;;;;;;5065766;28;20204;-59
2022/05/24 12:36:21;;;;;;;5.17;2.10;;;20.30;65.00;;;;;;5071197;28;20204;-59
2022/05/24 12:38:50;;;;;;;4.40;2.70;;;20.40;64.20;;;;;;5070804;28;20185;-58
2022/05/24 12:41:25;;;;;;;4.10;2.70;;;20.40;64.60;;;;;;5070893;28;20214;-60
2022/05/24 12:43:56;;;;;;;3.30;2.37;;;20.40;65.30;;;;;;5070934;28;20284;-57
2022/05/24 12:46:24;;;;;;;5.53;2.00;;;20.40;64.30;;;;;;5074660;28;20199;-59
2022/05/24 12:48:59;;;;;;;2.73;1.90;;;20.40;64.50;;;;;;5074127;28;20224;-59
2022/05/24 12:51:26;;;;;;;3.20;2.23;;;20.40;63.60;;;;;;5074314;28;20202;-58
2022/05/24 12:53:53;;;;;;;2.80;2.00;;;20.40;64.00;;;;;;5074399;28;20201;-58
2022/05/24 12:56:24;;;;;;;2.77;1.90;;;20.40;63.60;;;;;;5074516;28;20205;-58
2022/05/24 12:58:54;;;;;;;4.67;2.03;;;20.30;65.20;;;;;;5073773;28;20243;-58
2022/05/24 13:01:24;;;;;;;3.43;2.10;;;20.40;65.20;;;;;;5074419;28;20655;-58
2022/05/24 13:04:00;;;;;;;2.43;1.90;;;20.40;64.90;;;;;;5074250;28;20193;-57
2022/05/24 13:06:30;;;;;;;4.37;1.90;;;20.40;64.00;;;;;;5074239;28;20199;-59
2022/05/24 13:09:13;;;;;;;3.97;1.97;;;20.30;63.10;;;;;;5074281;28;20233;-59
2022/05/24 13:11:43;;;;;;;2.93;2.20;;;20.30;63.20;;;;;;5074251;28;20200;-58
2022/05/24 13:14:16;;;;;;;3.87;2.20;;;20.30;64.10;;;;;;5074181;28;20213;-59
2022/05/24 13:16:45;;;;;;;3.50;2.10;;;20.40;63.50;;;;;;5073748;28;20196;-59
2022/05/24 13:19:12;;;;;;;4.13;1.90;;;20.40;63.50;;;;;;5073789;28;20201;-60
2022/05/24 13:21:39;;;;;;;2.70;2.10;;;20.50;64.50;;;;;;5073646;28;20209;-59
2022/05/24 13:24:12;;;;;;;5.77;2.30;;;20.70;64.60;;;;;;5073367;28;20300;-60
2022/05/24 13:26:58;;;;;;;2.77;1.80;;;20.80;63.50;;;;;;5073849;28;20545;-59
2022/05/24 13:29:29;;;;;;;5.40;2.13;;;20.90;63.30;;;;;;5073514;28;20305;-58
2022/05/24 13:34:58;;;;;;;3.17;1.87;;;21.00;63.10;;;;;;5073757;28;20196;-59
2022/05/24 13:37:27;;;;;;;4.23;1.90;;;21.00;62.60;;;;;;5073764;28;20196;-62